• Join FlightAware (Why Join?)
  • Login
  • US Flag 
04:48AM EST


 

Airport Tracker/Info


-or-


 

Live Flight TrackerFlight Track Log ✈ CHH7067 ✈ 03-Aug-2014 ✈ ZJHK / HAK - ZSPD / PVG

Flight Track Log - Related Links

Times and Time Zones

All times are in EDT time to prevent confusion due to time zone crossing. See the CHH7067 flight status page for this flight to view local times or setup timezone preferences in your user account.

Time Position Orientation Groundspeed Altitude Reporting Facility
EDT Latitude Longitude Course Direction KTS MPH feet Rate Location/Type
11:15AM 22.5712 112.8737 40° Northeast  Level Estimated
11:16AM 22.6460 112.9440 41° Northeast  Level Estimated
11:17AM 22.7208 113.0144 41° Northeast  Level Estimated
11:18AM 22.7955 113.0848 41° Northeast  Level Estimated
11:19AM 22.8702 113.1553 41° Northeast  Level Estimated
11:20AM 22.9449 113.2260 41° Northeast  Level Estimated
11:21AM 23.0195 113.2966 41° Northeast  Level Estimated
11:22AM 23.0942 113.3674 41° Northeast  Level Estimated
11:23AM 23.1687 113.4382 41° Northeast  Level Estimated
11:24AM 23.2433 113.5092 41° Northeast  Level Estimated
11:25AM 23.3178 113.5802 41° Northeast  Level Estimated
11:26AM 23.3923 113.6513 41° Northeast  Level Estimated
11:27AM 23.4668 113.7224 41° Northeast  Level Estimated
11:28AM 23.5412 113.7936 41° Northeast  Level Estimated
11:29AM 23.6156 113.8650 41° Northeast  Level Estimated
11:30AM 23.6899 113.9364 41° Northeast  Level Estimated
11:31AM 23.7643 114.0079 41° Northeast  Level Estimated
11:32AM 23.8386 114.0794 41° Northeast  Level Estimated
11:33AM 23.9128 114.1511 41° Northeast  Level Estimated
11:34AM 23.9870 114.2228 41° Northeast  Level Estimated
11:35AM 24.0612 114.2946 41° Northeast  Level Estimated
11:36AM 24.1354 114.3665 41° Northeast  Level Estimated
11:37AM 24.2095 114.4385 42° Northeast  Level Estimated
11:38AM 24.2836 114.5105 42° Northeast  Level Estimated
11:39AM 24.3577 114.5827 42° Northeast  Level Estimated
11:40AM 24.4317 114.6549 42° Northeast  Level Estimated
11:41AM 24.5057 114.7272 42° Northeast  Level Estimated
11:42AM 24.5797 114.7996 42° Northeast  Level Estimated
11:43AM 24.6536 114.8721 42° Northeast  Level Estimated
11:44AM 24.7275 114.9447 42° Northeast  Level Estimated
11:45AM 24.8013 115.0173 42° Northeast  Level Estimated
11:46AM 24.8751 115.0901 42° Northeast  Level Estimated
11:47AM 24.9489 115.1629 42° Northeast  Level Estimated
11:48AM 25.0227 115.2358 42° Northeast  Level Estimated
11:49AM 25.0964 115.3089 42° Northeast  Level Estimated
11:50AM 25.1700 115.3820 42° Northeast  Level Estimated
11:51AM 25.2437 115.4551 42° Northeast  Level Estimated
11:52AM 25.3173 115.5284 42° Northeast  Level Estimated
11:53AM 25.3909 115.6018 42° Northeast  Level Estimated
11:54AM 25.4644 115.6752 42° Northeast  Level Estimated
11:55AM 25.5379 115.7488 42° Northeast  Level Estimated
11:56AM 25.6113 115.8224 42° Northeast  Level Estimated
11:57AM 25.6847 115.8961 42° Northeast  Level Estimated
11:58AM 25.7581 115.9699 42° Northeast  Level Estimated
11:59AM 25.8315 116.0438 42° Northeast  Level Estimated
12:00PM 25.9048 116.1178 42° Northeast  Level Estimated
12:01PM 25.9781 116.1919 42° Northeast  Level Estimated
12:02PM 26.0513 116.2661 42° Northeast  Level Estimated
12:03PM 26.1245 116.3404 42° Northeast  Level Estimated
12:04PM 26.1976 116.4147 42° Northeast  Level Estimated
12:05PM 26.2708 116.4892 42° Northeast  Level Estimated
12:06PM 26.3438 116.5637 42° Northeast  Level Estimated
12:07PM 26.4169 116.6384 42° Northeast  Level Estimated
12:08PM 26.4899 116.7131 42° Northeast  Level Estimated
12:09PM 26.5629 116.7880 43° Northeast  Level Estimated
12:10PM 26.6358 116.8629 43° Northeast  Level Estimated
12:11PM 26.7087 116.9379 43° Northeast  Level Estimated
12:12PM 26.7815 117.0130 43° Northeast  Level Estimated
12:13PM 26.8543 117.0883 43° Northeast  Level Estimated
12:14PM 26.9271 117.1636 43° Northeast  Level Estimated
12:15PM 26.9998 117.2390 43° Northeast  Level Estimated
12:16PM 27.0725 117.3145 43° Northeast  Level Estimated
12:17PM 27.1451 117.3901 43° Northeast  Level Estimated
12:18PM 27.2177 117.4658 43° Northeast  Level Estimated
12:19PM 27.2903 117.5416 43° Northeast  Level Estimated
12:20PM 27.3628 117.6175 43° Northeast  Level Estimated
12:21PM 27.4353 117.6935 43° Northeast  Level Estimated
12:22PM 27.5077 117.7696 43° Northeast  Level Estimated
12:23PM 27.5801 117.8458 43° Northeast  Level Estimated
12:24PM 27.6525 117.9221 43° Northeast  Level Estimated
12:25PM 27.7248 117.9986 43° Northeast  Level Estimated
12:26PM 27.7971 118.0751 43° Northeast  Level Estimated
12:27PM 27.8693 118.1517 43° Northeast  Level Estimated
12:28PM 27.9415 118.2284 43° Northeast  Level Estimated
12:29PM 28.0137 118.3052 43° Northeast  Level Estimated
12:30PM 28.0858 118.3821 43° Northeast  Level Estimated
12:31PM 28.1578 118.4591 43° Northeast  Level Estimated
12:32PM 28.2298 118.5363 43° Northeast  Level Estimated
12:33PM 28.3018 118.6135 43° Northeast  Level Estimated
12:34PM 28.3737 118.6908 43° Northeast  Level Estimated
12:35PM 28.4456 118.7683 43° Northeast  Level Estimated
12:36PM 28.5175 118.8458 43° Northeast  Level Estimated
12:37PM 28.5893 118.9234 44° Northeast  Level Estimated
12:38PM 28.6610 119.0012 44° Northeast  Level Estimated
12:39PM 28.7327 119.0791 44° Northeast  Level Estimated
12:40PM 28.8044 119.1570 44° Northeast  Level Estimated
12:41PM 28.8760 119.2351 44° Northeast  Level Estimated
12:42PM 28.9476 119.3133 44° Northeast  Level Estimated
12:43PM 29.0191 119.3916 44° Northeast  Level Estimated
12:44PM 29.0906 119.4700 44° Northeast  Level Estimated
12:45PM 29.1621 119.5485 44° Northeast  Level Estimated
12:46PM 29.2334 119.6271 44° Northeast  Level Estimated
12:47PM 29.3048 119.7058 44° Northeast  Level Estimated
12:48PM 29.3761 119.7847 44° Northeast  Level Estimated
12:49PM 29.4473 119.8636 44° Northeast  Level Estimated
12:50PM 29.5186 119.9427 44° Northeast  Level Estimated
12:51PM 29.5897 120.0219 44° Northeast  Level Estimated
12:52PM 29.6608 120.1012 44° Northeast  Level Estimated
12:53PM 29.7319 120.1805 44° Northeast  Level Estimated
12:53PM 29.3262 121.0038 27° Northeast 449 517 29,400  Level FlightAware ADS-B
12:54PM 29.8029 120.2600 44° Northeast  Level Estimated
12:54PM 29.4090 121.0514 27° Northeast 450 518 28,500  Level FlightAware ADS-B
12:54PM 29.4787 121.0916 27° Northeast 454 522 27,500 -1,500 Descending FlightAware ADS-B
12:55PM 29.5501 121.1329 27° Northeast 452 520 26,600 -1,500 Descending FlightAware ADS-B
12:57PM 29.7621 121.2561 27° Northeast 428 493 23,500 -1,500 Descending FlightAware ADS-B
12:58PM 29.8452 121.3042 27° Northeast 416 479 22,500 -1,980 Descending FlightAware ADS-B
12:59PM 29.9460 121.3651 29° Northeast 402 463 20,200 -2,400 Descending FlightAware ADS-B
12:59PM 30.0112 121.4069 29° Northeast 398 458 18,500 -1,680 Descending FlightAware ADS-B
01:01PM 30.1326 121.4834 29° Northeast 385 443 16,900 -1,320 Descending FlightAware ADS-B
01:01PM 30.1944 121.5223 29° Northeast 375 432 16,000 -1,260 Descending FlightAware ADS-B
01:02PM 30.2383 121.5503 29° Northeast 369 425 15,300 -1,020 Descending FlightAware ADS-B
01:03PM 30.3196 121.6016 29° Northeast 368 423 14,600 -1,020 Descending FlightAware ADS-B
01:03PM 30.3750 121.6369 29° Northeast 367 422 14,000 -960 Descending FlightAware ADS-B
01:04PM 30.4270 121.6701 29° Northeast 369 425 13,500 -1,080 Descending FlightAware ADS-B
01:05PM 30.4900 121.7101 29° Northeast 364 419 12,600 -1,080 Descending FlightAware ADS-B
01:05PM 30.5553 121.7517 29° Northeast 355 409 12,000 -900 Descending FlightAware ADS-B
01:06PM 30.6124 121.7881 29° Northeast 330 380 11,400 -900 Descending FlightAware ADS-B
01:07PM 30.6664 121.8114 North 303 349 10,800 -900 Descending FlightAware ADS-B
01:09PM 30.8478 121.8041 358° North  Level Estimated
01:10PM 30.9468 121.8002 358° North  Level Estimated
01:11PM 31.0458 121.7962 358° North  Level Estimated
01:12PM 31.1428 121.7924 358° North  Level Estimated
01:13PM 31.1428 121.7924 North  Level Estimated
01:14PM 31.1428 121.7924 North  Level Estimated
01:15PM 31.1428 121.7924 North  Level Estimated
01:16PM 31.1428 121.7924 North  Level Estimated
01:17PM 31.1428 121.7924 North  Level Estimated
01:18PM 31.1428 121.7924 North  Level Estimated
01:19PM 31.1428 121.7924 North  Level Estimated
01:20PM 31.1428 121.7924 North  Level Estimated
01:21PM 31.1428 121.7924 North  Level Estimated
01:22PM 31.1428 121.7924 North  Level Estimated
01:23PM 31.1428 121.7924 North  Level Estimated
01:24PM 31.1428 121.7924 North  Level Estimated
01:25PM 31.1428 121.7924 North  Level Estimated
01:26PM 31.1428 121.7924 North  Level Estimated